Tampa — WAI6569 — position and weather

sailwx.info

Track history (hours):
 
Tides and Currents Weather Stations Pressure Air Temp Water Temp Dewpoint Dewpoint Depression Visibility Wind Speed Wind Dir Waves Ship Positions

Tampa

Owner: Seabulk Towing, Inc., TAMPA, FL. More information available from US FCC via Universal Licensing System and Coast Guard Vessel Documentation Center.

Last reported at 2018-Jan-22 03:52 UTC. Time now 2018-Jan-22 07:53 UTC.
Position N 39°12' W 076°16'.

; draft 4.3 m.

Type: Towing. MMSI: 366943510.

Date/timePositionNaut miles runAvg speedWind from/ knotsBaromVisibWave heightAir tempDewpointWater temp
2018-Jan-22 03:52N 39°12' W 076°16'410.3
2018-Jan-22 03:30N 39°09' W 076°19'510.0
2018-Jan-22 03:00N 39°04' W 076°21'510.3
2018-Jan-22 02:30N 38°60' W 076°23'510.1
2018-Jan-22 02:00N 38°55' W 076°23'5 9.4
2018-Jan-22 01:29N 38°50' W 076°23'3 7.2
2018-Jan-22 01:00N 38°47' W 076°21'0 1.0
2018-Jan-22 00:30N 38°46' W 076°21'0 0.4
2018-Jan-22 00:00N 38°46' W 076°21'0 0.0
2018-Jan-21 23:30N 38°46' W 076°21'0 0.0
2018-Jan-21 23:00N 38°46' W 076°21'0 0.0
2018-Jan-21 22:30N 38°46' W 076°21'0 0.0
2018-Jan-21 22:00N 38°46' W 076°21'0 0.0
2018-Jan-21 21:30N 38°46' W 076°21'0 0.0
2018-Jan-21 21:00N 38°46' W 076°21'0 0.0
2018-Jan-21 20:30N 38°46' W 076°21'0 0.0
2018-Jan-21 20:00N 38°46' W 076°21'0 0.0
2018-Jan-21 19:30N 38°46' W 076°21'0 0.0
2018-Jan-21 19:00N 38°46' W 076°21'0 0.0
2018-Jan-21 18:30N 38°46' W 076°21'0 0.0
2018-Jan-21 18:00N 38°46' W 076°21'0 0.1
2018-Jan-21 17:28N 38°46' W 076°21'0 0.3
2018-Jan-21 17:00N 38°46' W 076°21'2 3.8
2018-Jan-21 16:30N 38°48' W 076°22'1 1.9
2018-Jan-21 16:00N 38°49' W 076°21'3 5.3
2018-Jan-21 15:30N 38°46' W 076°21'0 0.0
2018-Jan-21 15:00N 38°46' W 076°21'0 0.0
2018-Jan-21 14:30N 38°46' W 076°21'0 0.1
2018-Jan-21 14:00N 38°46' W 076°21'0 0.0
2018-Jan-21 13:30N 38°46' W 076°21'0 0.3
2018-Jan-21 13:00N 38°46' W 076°21'0 0.0
2018-Jan-21 12:30N 38°46' W 076°21'0 0.0
2018-Jan-21 12:00N 38°46' W 076°21'0 0.0
2018-Jan-21 11:30N 38°46' W 076°21'0 0.0
2018-Jan-21 11:00N 38°46' W 076°21'0 0.0
2018-Jan-21 10:30N 38°46' W 076°21'0 0.0
2018-Jan-21 10:00N 38°46' W 076°21'0 0.0
2018-Jan-21 09:30N 38°46' W 076°21'0 0.0
2018-Jan-21 09:00N 38°46' W 076°21'0 0.0
2018-Jan-21 08:30N 38°46' W 076°21'0 0.0
2018-Jan-21 08:00N 38°46' W 076°21'0 0.0
2018-Jan-21 07:30N 38°46' W 076°21'0 0.0
2018-Jan-21 07:00N 38°46' W 076°21'0 0.1
2018-Jan-21 06:30N 38°46' W 076°21'0 0.0
2018-Jan-21 06:00N 38°46' W 076°21'0 0.0
2018-Jan-21 05:30N 38°46' W 076°21'0 0.0
2018-Jan-21 05:00N 38°46' W 076°21'0 0.0
2018-Jan-21 04:30N 38°46' W 076°21'0 0.0
2018-Jan-21 04:00N 38°46' W 076°21'0 0.0
2018-Jan-21 03:30N 38°46' W 076°21'0 0.0
2018-Jan-21 03:00N 38°46' W 076°21'0 0.0
2018-Jan-21 02:28N 38°46' W 076°21'0 0.1
2018-Jan-21 01:49N 38°46' W 076°21'0 0.1
2018-Jan-21 01:30N 38°46' W 076°21'0 0.0
2018-Jan-21 01:00N 38°46' W 076°21'0 0.0
2018-Jan-21 00:30N 38°46' W 076°21'0 0.0
2018-Jan-20 23:59N 38°46' W 076°21'0 0.0
2018-Jan-20 23:30N 38°46' W 076°21'0 0.0
2018-Jan-20 23:00N 38°46' W 076°21'0 0.0
2018-Jan-20 22:30N 38°46' W 076°21'2 4.3
2018-Jan-20 22:00N 38°48' W 076°21'4 7.5
2018-Jan-20 21:30N 38°51' W 076°24'4 8.9
2018-Jan-20 21:00N 38°56' W 076°24'4 7.9
2018-Jan-20 20:30N 38°60' W 076°23'5 9.1
2018-Jan-20 20:00N 39°04' W 076°21'5 9.1
2018-Jan-20 19:30N 39°08' W 076°19'24 1.4
2018-Jan-20 03:14N 39°29' W 076°04'1 6.5
2018-Jan-20 03:00N 39°28' W 076°03'3 7.0
2018-Jan-20 02:30N 39°24' W 076°03'510.0
2018-Jan-20 02:00N 39°22' W 076°09'510.1
2018-Jan-20 01:30N 39°18' W 076°13'5 9.8
2018-Jan-20 01:00N 39°13' W 076°15'5 9.8
2018-Jan-20 00:30N 39°09' W 076°19'5 9.4
2018-Jan-20 00:00N 39°05' W 076°21'5 9.0
2018-Jan-19 23:30N 39°01' W 076°22'4 8.9
2018-Jan-19 23:00N 38°56' W 076°23'5 9.8
2018-Jan-19 22:30N 38°51' W 076°24'4 7.7
2018-Jan-19 21:59N 38°48' W 076°21'3 0.4
2018-Jan-19 14:30N 38°50' W 076°24'4 8.6
2018-Jan-19 14:00N 38°54' W 076°24'2 4.6
2018-Jan-19 13:30N 38°56' W 076°24'2 3.8
2018-Jan-19 13:01N 38°58' W 076°23'3 6.7
2018-Jan-19 12:30N 38°55' W 076°24'5 8.7
2018-Jan-19 11:58N 38°50' W 076°24'4 8.7
2018-Jan-19 11:30N 38°46' W 076°25'3 3.4
2018-Jan-19 10:41N 38°45' W 076°22'0 0.0
2018-Jan-19 10:10N 38°45' W 076°22'0 0.0
2018-Jan-19 10:00N 38°45' W 076°22'0 0.0
2018-Jan-19 08:48N 38°45' W 076°22'0 0.0
2018-Jan-19 08:02N 38°45' W 076°22'0 0.0
2018-Jan-19 07:40N 38°45' W 076°22'2 0.2
2018-Jan-18 20:11N 38°46' W 076°21'0 0.0
2018-Jan-18 20:00N 38°46' W 076°21'0 0.0
2018-Jan-18 19:30N 38°46' W 076°21'0 0.0
2018-Jan-18 19:00N 38°46' W 076°21'0 0.0
2018-Jan-18 18:30N 38°46' W 076°21'1 1.9
2018-Jan-18 18:00N 38°47' W 076°21'2 4.6
2018-Jan-18 17:30N 38°48' W 076°24'4 7.6
2018-Jan-18 17:00N 38°44' W 076°24'1 2.0
2018-Jan-18 16:30N 38°45' W 076°22'0 0.0
2018-Jan-18 15:59N 38°45' W 076°22'0 0.0
2018-Jan-18 15:30N 38°45' W 076°22'0 0.0
2018-Jan-18 15:00N 38°45' W 076°22'0 0.0
2018-Jan-18 14:30N 38°45' W 076°22'0 0.0
2018-Jan-18 14:00N 38°45' W 076°22'0 0.0
2018-Jan-18 13:30N 38°45' W 076°22'0 0.0
2018-Jan-18 13:00N 38°45' W 076°22'0 0.0
2018-Jan-18 12:30N 38°45' W 076°22'0 0.0
2018-Jan-18 12:00N 38°45' W 076°22'0 0.0
2018-Jan-18 11:30N 38°45' W 076°22'0 0.0
2018-Jan-18 11:00N 38°45' W 076°22'0 0.0
2018-Jan-18 10:30N 38°45' W 076°22'0 0.0
2018-Jan-18 10:00N 38°45' W 076°22'0 0.0
2018-Jan-18 09:30N 38°45' W 076°22'0 0.0
2018-Jan-18 09:00N 38°45' W 076°22'0 0.0
2018-Jan-18 08:30N 38°45' W 076°22'0 0.0
2018-Jan-18 08:00N 38°45' W 076°22'0 0.0
2018-Jan-18 07:30N 38°45' W 076°22'0 0.0
2018-Jan-18 07:00N 38°45' W 076°22'0 0.0
2018-Jan-18 06:30N 38°45' W 076°22'0 0.0
2018-Jan-18 06:00N 38°45' W 076°22'0 0.0
2018-Jan-18 05:30N 38°45' W 076°22'0 0.0
2018-Jan-18 05:00N 38°45' W 076°22'0 0.0
2018-Jan-18 04:30N 38°45' W 076°22'0 0.0
2018-Jan-18 04:00N 38°45' W 076°22'0 0.0
2018-Jan-18 03:27N 38°45' W 076°22'0 0.0
2018-Jan-18 03:00N 38°45' W 076°22'0 0.0
2018-Jan-18 02:30N 38°45' W 076°22'0 0.0
2018-Jan-18 02:00N 38°45' W 076°22'0 0.0
2018-Jan-18 01:30N 38°45' W 076°22'0 0.0
2018-Jan-18 01:00N 38°45' W 076°22'0 0.0
2018-Jan-18 00:00N 38°45' W 076°22'0 0.0
2018-Jan-17 23:57N 38°45' W 076°22'  
2018-Jan-12 12:44N 38°46' W 076°21'0 0.0
2018-Jan-12 11:24N 38°46' W 076°21'0 0.0
2018-Jan-12 10:59N 38°46' W 076°21'0 0.0
2018-Jan-12 10:30N 38°46' W 076°21'0 0.0
2018-Jan-12 10:00N 38°46' W 076°21'0 0.0
2018-Jan-12 06:42N 38°46' W 076°21'0 0.0
2018-Jan-12 05:39N 38°46' W 076°21'0 0.0
2018-Jan-12 05:25N 38°46' W 076°21'0 0.0
2018-Jan-12 05:00N 38°46' W 076°21'0 0.0
2018-Jan-12 04:29N 38°46' W 076°21'0 0.0
2018-Jan-12 03:55N 38°46' W 076°21'  
Track history (hours):
 
Tides and Currents Weather Stations Pressure Air Temp Water Temp Dewpoint Dewpoint Depression Visibility Wind Speed Wind Dir Waves Ship Positions

Tampa

Owner: Seabulk Towing, Inc., TAMPA, FL. More information available from US FCC via Universal Licensing System and Coast Guard Vessel Documentation Center.

Last reported at 2018-Jan-22 03:52 UTC. Time now 2018-Jan-22 07:53 UTC.
Position N 39°12' W 076°16'.

; draft 4.3 m.

Type: Towing. MMSI: 366943510.

Date/timePositionNaut miles runAvg speedWind from/ knotsBaromVisibWave heightAir tempDewpointWater temp
2018-Jan-22 03:52N 39°12' W 076°16'410.3
2018-Jan-22 03:30N 39°09' W 076°19'510.0
2018-Jan-22 03:00N 39°04' W 076°21'510.3
2018-Jan-22 02:30N 38°60' W 076°23'510.1
2018-Jan-22 02:00N 38°55' W 076°23'5 9.4
2018-Jan-22 01:29N 38°50' W 076°23'3 7.2
2018-Jan-22 01:00N 38°47' W 076°21'0 1.0
2018-Jan-22 00:30N 38°46' W 076°21'0 0.4
2018-Jan-22 00:00N 38°46' W 076°21'0 0.0
2018-Jan-21 23:30N 38°46' W 076°21'0 0.0
2018-Jan-21 23:00N 38°46' W 076°21'0 0.0
2018-Jan-21 22:30N 38°46' W 076°21'0 0.0
2018-Jan-21 22:00N 38°46' W 076°21'0 0.0
2018-Jan-21 21:30N 38°46' W 076°21'0 0.0
2018-Jan-21 21:00N 38°46' W 076°21'0 0.0
2018-Jan-21 20:30N 38°46' W 076°21'0 0.0
2018-Jan-21 20:00N 38°46' W 076°21'0 0.0
2018-Jan-21 19:30N 38°46' W 076°21'0 0.0
2018-Jan-21 19:00N 38°46' W 076°21'0 0.0
2018-Jan-21 18:30N 38°46' W 076°21'0 0.0
2018-Jan-21 18:00N 38°46' W 076°21'0 0.1
2018-Jan-21 17:28N 38°46' W 076°21'0 0.3
2018-Jan-21 17:00N 38°46' W 076°21'2 3.8
2018-Jan-21 16:30N 38°48' W 076°22'1 1.9
2018-Jan-21 16:00N 38°49' W 076°21'3 5.3
2018-Jan-21 15:30N 38°46' W 076°21'0 0.0
2018-Jan-21 15:00N 38°46' W 076°21'0 0.0
2018-Jan-21 14:30N 38°46' W 076°21'0 0.1
2018-Jan-21 14:00N 38°46' W 076°21'0 0.0
2018-Jan-21 13:30N 38°46' W 076°21'0 0.3
2018-Jan-21 13:00N 38°46' W 076°21'0 0.0
2018-Jan-21 12:30N 38°46' W 076°21'0 0.0
2018-Jan-21 12:00N 38°46' W 076°21'0 0.0
2018-Jan-21 11:30N 38°46' W 076°21'0 0.0
2018-Jan-21 11:00N 38°46' W 076°21'0 0.0
2018-Jan-21 10:30N 38°46' W 076°21'0 0.0
2018-Jan-21 10:00N 38°46' W 076°21'0 0.0
2018-Jan-21 09:30N 38°46' W 076°21'0 0.0
2018-Jan-21 09:00N 38°46' W 076°21'0 0.0
2018-Jan-21 08:30N 38°46' W 076°21'0 0.0
2018-Jan-21 08:00N 38°46' W 076°21'0 0.0
2018-Jan-21 07:30N 38°46' W 076°21'0 0.0
2018-Jan-21 07:00N 38°46' W 076°21'0 0.1
2018-Jan-21 06:30N 38°46' W 076°21'0 0.0
2018-Jan-21 06:00N 38°46' W 076°21'0 0.0
2018-Jan-21 05:30N 38°46' W 076°21'0 0.0
2018-Jan-21 05:00N 38°46' W 076°21'0 0.0
2018-Jan-21 04:30N 38°46' W 076°21'0 0.0
2018-Jan-21 04:00N 38°46' W 076°21'0 0.0
2018-Jan-21 03:30N 38°46' W 076°21'0 0.0
2018-Jan-21 03:00N 38°46' W 076°21'0 0.0
2018-Jan-21 02:28N 38°46' W 076°21'0 0.1
2018-Jan-21 01:49N 38°46' W 076°21'0 0.1
2018-Jan-21 01:30N 38°46' W 076°21'0 0.0
2018-Jan-21 01:00N 38°46' W 076°21'0 0.0
2018-Jan-21 00:30N 38°46' W 076°21'0 0.0
2018-Jan-20 23:59N 38°46' W 076°21'0 0.0
2018-Jan-20 23:30N 38°46' W 076°21'0 0.0
2018-Jan-20 23:00N 38°46' W 076°21'0 0.0
2018-Jan-20 22:30N 38°46' W 076°21'2 4.3
2018-Jan-20 22:00N 38°48' W 076°21'4 7.5
2018-Jan-20 21:30N 38°51' W 076°24'4 8.9
2018-Jan-20 21:00N 38°56' W 076°24'4 7.9
2018-Jan-20 20:30N 38°60' W 076°23'5 9.1
2018-Jan-20 20:00N 39°04' W 076°21'5 9.1
2018-Jan-20 19:30N 39°08' W 076°19'24 1.4
2018-Jan-20 03:14N 39°29' W 076°04'1 6.5
2018-Jan-20 03:00N 39°28' W 076°03'3 7.0
2018-Jan-20 02:30N 39°24' W 076°03'510.0
2018-Jan-20 02:00N 39°22' W 076°09'510.1
2018-Jan-20 01:30N 39°18' W 076°13'5 9.8
2018-Jan-20 01:00N 39°13' W 076°15'5 9.8
2018-Jan-20 00:30N 39°09' W 076°19'5 9.4
2018-Jan-20 00:00N 39°05' W 076°21'5 9.0
2018-Jan-19 23:30N 39°01' W 076°22'4 8.9
2018-Jan-19 23:00N 38°56' W 076°23'5 9.8
2018-Jan-19 22:30N 38°51' W 076°24'4 7.7
2018-Jan-19 21:59N 38°48' W 076°21'3 0.4
2018-Jan-19 14:30N 38°50' W 076°24'4 8.6
2018-Jan-19 14:00N 38°54' W 076°24'2 4.6
2018-Jan-19 13:30N 38°56' W 076°24'2 3.8
2018-Jan-19 13:01N 38°58' W 076°23'3 6.7
2018-Jan-19 12:30N 38°55' W 076°24'5 8.7
2018-Jan-19 11:58N 38°50' W 076°24'4 8.7
2018-Jan-19 11:30N 38°46' W 076°25'3 3.4
2018-Jan-19 10:41N 38°45' W 076°22'0 0.0
2018-Jan-19 10:10N 38°45' W 076°22'0 0.0
2018-Jan-19 10:00N 38°45' W 076°22'0 0.0
2018-Jan-19 08:48N 38°45' W 076°22'0 0.0
2018-Jan-19 08:02N 38°45' W 076°22'0 0.0
2018-Jan-19 07:40N 38°45' W 076°22'2 0.2
2018-Jan-18 20:11N 38°46' W 076°21'0 0.0
2018-Jan-18 20:00N 38°46' W 076°21'0 0.0
2018-Jan-18 19:30N 38°46' W 076°21'0 0.0
2018-Jan-18 19:00N 38°46' W 076°21'0 0.0
2018-Jan-18 18:30N 38°46' W 076°21'1 1.9
2018-Jan-18 18:00N 38°47' W 076°21'2 4.6
2018-Jan-18 17:30N 38°48' W 076°24'4 7.6
2018-Jan-18 17:00N 38°44' W 076°24'1 2.0
2018-Jan-18 16:30N 38°45' W 076°22'0 0.0
2018-Jan-18 15:59N 38°45' W 076°22'0 0.0
2018-Jan-18 15:30N 38°45' W 076°22'0 0.0
2018-Jan-18 15:00N 38°45' W 076°22'0 0.0
2018-Jan-18 14:30N 38°45' W 076°22'0 0.0
2018-Jan-18 14:00N 38°45' W 076°22'0 0.0
2018-Jan-18 13:30N 38°45' W 076°22'0 0.0
2018-Jan-18 13:00N 38°45' W 076°22'0 0.0
2018-Jan-18 12:30N 38°45' W 076°22'0 0.0
2018-Jan-18 12:00N 38°45' W 076°22'0 0.0
2018-Jan-18 11:30N 38°45' W 076°22'0 0.0
2018-Jan-18 11:00N 38°45' W 076°22'0 0.0
2018-Jan-18 10:30N 38°45' W 076°22'0 0.0
2018-Jan-18 10:00N 38°45' W 076°22'0 0.0
2018-Jan-18 09:30N 38°45' W 076°22'0 0.0
2018-Jan-18 09:00N 38°45' W 076°22'0 0.0
2018-Jan-18 08:30N 38°45' W 076°22'0 0.0
2018-Jan-18 08:00N 38°45' W 076°22'0 0.0
2018-Jan-18 07:30N 38°45' W 076°22'0 0.0
2018-Jan-18 07:00N 38°45' W 076°22'0 0.0
2018-Jan-18 06:30N 38°45' W 076°22'0 0.0
2018-Jan-18 06:00N 38°45' W 076°22'0 0.0
2018-Jan-18 05:30N 38°45' W 076°22'0 0.0
2018-Jan-18 05:00N 38°45' W 076°22'0 0.0
2018-Jan-18 04:30N 38°45' W 076°22'0 0.0
2018-Jan-18 04:00N 38°45' W 076°22'0 0.0
2018-Jan-18 03:27N 38°45' W 076°22'0 0.0
2018-Jan-18 03:00N 38°45' W 076°22'0 0.0
2018-Jan-18 02:30N 38°45' W 076°22'0 0.0
2018-Jan-18 02:00N 38°45' W 076°22'0 0.0
2018-Jan-18 01:30N 38°45' W 076°22'0 0.0
2018-Jan-18 01:00N 38°45' W 076°22'0 0.0
2018-Jan-18 00:00N 38°45' W 076°22'0 0.0
2018-Jan-17 23:57N 38°45' W 076°22'  
2018-Jan-12 12:44N 38°46' W 076°21'0 0.0
2018-Jan-12 11:24N 38°46' W 076°21'0 0.0
2018-Jan-12 10:59N 38°46' W 076°21'0 0.0
2018-Jan-12 10:30N 38°46' W 076°21'0 0.0
2018-Jan-12 10:00N 38°46' W 076°21'0 0.0
2018-Jan-12 06:42N 38°46' W 076°21'0 0.0
2018-Jan-12 05:39N 38°46' W 076°21'0 0.0
2018-Jan-12 05:25N 38°46' W 076°21'0 0.0
2018-Jan-12 05:00N 38°46' W 076°21'0 0.0
2018-Jan-12 04:29N 38°46' W 076°21'0 0.0
2018-Jan-12 03:55N 38°46' W 076°21'  

Dump ship's entire track history